Hesperia, Michigan
Current Conditions -  °F | °C
As of 7:11 AM on Tuesday 27 Jan 2015 (Local Time) from KFFX Reporting Station
Clear Clear  
Wind Chill: 17°   Ceiling: Unl
Heat Index: 17°   Visibility: 10mi
Dew Point:   Wind: 3mph
Humidity: 69%   Direction: 40°NE
Pressure: 30.08"   Gusts: NA
Location:  43.57°N, 86.04°W
Report Text: KFFX 271211Z AUTO 04003KT 10SM CLR M08/M13 A3008 RMK AO2 T10851133
Loading
Personal Weather Stations






























Interactive Weather Map New forecast layout! Learn more

10-Day Weather Forecast

Advertisements
Track Severe Weather on mobile